createdAt,value
2019-02-12T00:02:32.820Z,6.05
2019-02-12T00:05:35.735Z,6.97
2019-02-12T00:08:38.505Z,3.33
2019-02-12T00:11:41.289Z,5.28
2019-02-12T00:14:45.113Z,6.60
2019-02-12T00:17:47.888Z,6.45
2019-02-12T00:20:50.668Z,6.78
2019-02-12T00:23:53.198Z,6.70
2019-02-12T00:26:55.721Z,4.95
2019-02-12T00:29:58.504Z,6.28
2019-02-12T00:33:04.359Z,5.58
2019-02-12T00:36:06.891Z,7.33
2019-02-12T00:39:09.414Z,4.33
2019-02-12T00:42:11.943Z,6.70
2019-02-12T00:45:11.222Z,7.20
2019-02-12T00:48:13.681Z,7.22
2019-02-12T00:51:18.063Z,7.30
2019-02-12T00:54:18.983Z,3.60
2019-02-12T00:57:23.303Z,2.70
2019-02-12T01:00:22.457Z,4.92
2019-02-12T01:03:25.044Z,7.58
2019-02-12T01:06:28.840Z,7.53
2019-02-12T01:09:31.381Z,7.92
2019-02-12T01:12:33.900Z,7.53
2019-02-12T01:15:31.347Z,7.17
2019-02-12T01:18:35.367Z,6.53
2019-02-12T01:21:37.896Z,7.28
2019-02-12T01:24:40.689Z,7.12
2019-02-12T01:27:43.208Z,6.75
2019-02-12T01:30:47.277Z,7.75
2019-02-12T01:33:49.800Z,7.10
2019-02-12T01:36:52.329Z,8.25
2019-02-12T01:39:55.112Z,5.08
2019-02-12T01:42:58.921Z,6.40
2019-02-12T01:46:01.703Z,6.40
2019-02-12T01:49:04.238Z,7.33
2019-02-12T01:52:07.019Z,6.75
2019-02-12T01:55:09.804Z,7.25
2019-02-12T01:58:12.841Z,4.42
2019-02-12T02:01:15.368Z,2.65
2019-02-12T02:04:18.152Z,4.45
2019-02-12T02:07:20.682Z,7.15
2019-02-12T02:10:23.720Z,7.35
2019-02-12T02:13:22.730Z,4.55
2019-02-12T02:16:25.702Z,4.28
2019-02-12T02:19:24.651Z,6.45
2019-02-12T02:22:27.177Z,6.58
2019-02-12T02:25:30.217Z,6.90
2019-02-12T02:28:28.903Z,3.20
2019-02-12T02:31:31.686Z,3.55
2019-02-12T02:34:34.476Z,6.65
2019-02-12T02:37:37.006Z,7.10
2019-02-12T02:40:36.456Z,4.47
2019-02-12T02:43:39.252Z,5.97
2019-02-12T02:46:41.770Z,6.35
2019-02-12T02:49:44.571Z,5.95
2019-02-12T02:52:47.336Z,7.20
2019-02-12T02:55:50.120Z,2.83
2019-02-12T02:58:52.647Z,5.10
2019-02-12T03:01:55.176Z,3.58
2019-02-12T03:04:57.704Z,6.03
2019-02-12T03:08:00.745Z,7.30
2019-02-12T03:11:04.297Z,4.58
2019-02-12T03:14:07.085Z,7.25
2019-02-12T03:17:21.383Z,3.17
2019-02-12T03:20:24.423Z,6.45
2019-02-12T03:23:27.209Z,6.92
2019-02-12T03:26:29.736Z,9.08
2019-02-12T03:29:32.264Z,8.70
2019-02-12T03:32:34.794Z,7.65
2019-02-12T03:35:38.088Z,7.78
2019-02-12T03:38:40.874Z,4.78
2019-02-12T03:41:43.915Z,7.17
2019-02-12T03:44:46.440Z,7.60
2019-02-12T03:47:49.500Z,7.00
2019-02-12T03:50:51.752Z,7.85
2019-02-12T03:53:54.289Z,7.25
2019-02-12T03:56:57.063Z,7.10
2019-02-12T04:00:00.300Z,6.53
2019-02-12T04:03:02.888Z,6.47
2019-02-12T04:06:05.671Z,6.70
2019-02-12T04:09:08.716Z,6.90
2019-02-12T04:12:11.498Z,5.58
2019-02-12T04:15:14.282Z,6.62
2019-02-12T04:18:16.807Z,5.20
2019-02-12T04:21:19.080Z,6.50
2019-02-12T04:24:22.119Z,3.30
2019-02-12T04:27:25.162Z,6.53
2019-02-12T04:30:29.225Z,7.42
2019-02-12T04:33:32.010Z,5.45
2019-02-12T04:36:34.791Z,6.75
2019-02-12T04:39:37.833Z,3.08
2019-02-12T04:42:41.382Z,6.83
2019-02-12T04:45:44.680Z,6.78
2019-02-12T04:48:47.470Z,4.15
2019-02-12T04:51:50.248Z,4.00
2019-02-12T04:54:54.055Z,3.40
2019-02-12T04:57:51.208Z,6.40
2019-02-12T05:01:01.416Z,4.60
2019-02-12T05:04:04.519Z,6.53
2019-02-12T05:07:07.241Z,5.47
2019-02-12T05:10:10.808Z,4.90
2019-02-12T05:13:09.936Z,6.15
2019-02-12T05:16:13.543Z,5.12
2019-02-12T05:19:16.074Z,5.85
2019-02-12T05:22:18.601Z,7.00
2019-02-12T05:25:21.642Z,5.42
2019-02-12T05:28:24.173Z,3.05
2019-02-12T05:31:26.955Z,6.00
2019-02-12T05:34:29.992Z,5.95
2019-02-12T05:37:32.779Z,5.67
2019-02-12T05:40:35.560Z,6.05
2019-02-12T05:43:37.839Z,6.65
2019-02-12T05:46:40.106Z,5.65
2019-02-12T05:49:42.888Z,6.65
2019-02-12T05:52:41.940Z,5.83
2019-02-12T05:55:44.621Z,4.70
2019-02-12T05:58:47.150Z,4.20
2019-02-12T06:01:50.188Z,2.90
2019-02-12T06:05:00.668Z,2.67
2019-02-12T06:08:03.446Z,6.55
2019-02-12T06:11:06.476Z,2.52
2019-02-12T06:14:09.262Z,2.47
2019-02-12T06:17:12.295Z,2.75
2019-02-12T06:20:16.104Z,5.22
2019-02-12T06:23:18.890Z,6.28
2019-02-12T06:26:21.678Z,4.97
2019-02-12T06:29:25.489Z,7.40
2019-02-12T06:32:28.267Z,6.67
2019-02-12T06:35:31.308Z,5.67
2019-02-12T06:38:34.089Z,4.12
2019-02-12T06:41:44.810Z,7.72
2019-02-12T06:44:47.339Z,7.80
2019-02-12T06:47:50.890Z,3.33
2019-02-12T06:50:53.432Z,4.95
2019-02-12T06:53:57.224Z,5.67
2019-02-12T06:56:59.753Z,3.05
2019-02-12T07:00:02.540Z,6.45
2019-02-12T07:03:15.565Z,5.92
2019-02-12T07:06:35.240Z,4.35
2019-02-12T07:09:55.692Z,7.90
2019-02-12T07:13:27.670Z,4.97
2019-02-12T07:16:41.711Z,6.25
2019-02-12T07:20:04.721Z,7.12
2019-02-12T07:23:33.865Z,7.78
2019-02-12T07:26:44.072Z,4.28
2019-02-12T07:30:01.195Z,3.17
2019-02-12T07:33:15.501Z,5.10
2019-02-12T07:36:32.884Z,8.08
2019-02-12T07:39:58.958Z,3.50
2019-02-12T07:43:21.708Z,5.17
2019-02-12T07:46:41.133Z,3.52
2019-02-12T07:49:53.902Z,6.22
2019-02-12T07:53:08.459Z,4.22
2019-02-12T07:56:31.462Z,5.10
2019-02-12T07:59:45.257Z,6.17
2019-02-12T08:02:59.054Z,6.58
2019-02-12T08:06:15.919Z,6.35
2019-02-12T08:09:41.994Z,7.35
2019-02-12T08:13:08.075Z,7.53
2019-02-12T08:16:22.131Z,7.45
2019-02-12T08:19:48.458Z,8.10
2019-02-12T08:23:01.232Z,7.78
2019-02-12T08:26:25.260Z,6.17
2019-02-12T08:29:39.820Z,7.53
2019-02-12T08:33:05.902Z,5.35
2019-02-12T08:36:20.201Z,3.27
2019-02-12T08:39:29.384Z,7.90
2019-02-12T08:42:43.440Z,8.58
2019-02-12T08:46:00.301Z,7.58
2019-02-12T08:49:17.176Z,7.50
2019-02-12T08:52:40.177Z,6.97
2019-02-12T08:56:02.929Z,8.40
2019-02-12T08:59:20.044Z,7.20
2019-02-12T09:02:37.163Z,5.58
2019-02-12T09:05:57.096Z,4.20
2019-02-12T09:09:11.406Z,7.40
2019-02-12T09:12:26.729Z,8.20
2019-02-12T09:15:45.387Z,6.37
2019-02-12T09:18:59.689Z,5.53
2019-02-12T09:22:16.554Z,7.62
2019-02-12T09:25:23.434Z,6.00
2019-02-12T09:28:53.103Z,5.75
2019-02-12T09:32:07.144Z,4.55
2019-02-12T09:35:33.236Z,5.78
2019-02-12T09:38:56.493Z,4.05
2019-02-12T09:42:10.791Z,5.50
2019-02-12T09:45:27.658Z,3.55
2019-02-12T09:48:42.731Z,11.18
2019-02-12T09:51:57.040Z,21.37
2019-02-12T09:55:26.203Z,6.85
2019-02-12T09:58:49.195Z,4.65
2019-02-12T10:02:12.199Z,5.70
2019-02-12T10:05:23.435Z,4.65
2019-02-12T10:08:47.474Z,4.30
2019-02-12T10:11:57.740Z,4.60
2019-02-12T10:15:15.586Z,4.65
2019-02-12T10:18:32.171Z,4.53
2019-02-12T10:21:46.726Z,4.30
2019-02-12T10:25:00.524Z,12.30
2019-02-12T10:28:26.611Z,5.90
2019-02-12T10:31:46.790Z,5.30
2019-02-12T10:34:49.322Z,5.28
2019-02-12T10:37:52.104Z,4.65
2019-02-12T10:40:54.889Z,4.58
2019-02-12T10:43:57.680Z,6.95
2019-02-12T10:47:00.456Z,9.50
2019-02-12T10:50:04.014Z,11.45
2019-02-12T10:53:06.543Z,11.70
2019-02-12T10:56:09.838Z,10.38
2019-02-12T10:59:14.411Z,12.75
2019-02-12T11:02:14.894Z,11.60
2019-02-12T11:05:18.697Z,7.15
2019-02-12T11:08:21.227Z,5.30
2019-02-12T11:11:23.752Z,6.10
2019-02-12T11:14:26.279Z,6.22
2019-02-12T11:17:32.138Z,6.40
2019-02-12T11:20:34.919Z,5.10
2019-02-12T11:23:38.991Z,4.03
2019-02-12T11:26:42.022Z,4.33
2019-02-12T11:29:45.832Z,3.60
2019-02-12T11:32:48.360Z,3.72
2019-02-12T11:35:51.399Z,4.55
2019-02-12T11:38:54.699Z,4.20
2019-02-12T11:41:57.480Z,3.37
2019-02-12T11:45:00.318Z,3.42
2019-02-12T11:48:04.073Z,3.90
2019-02-12T11:51:06.857Z,3.67
2019-02-12T11:54:09.640Z,3.33
2019-02-12T11:57:12.428Z,3.20
2019-02-12T12:00:15.212Z,2.02
2019-02-12T12:03:19.020Z,2.70
2019-02-12T12:06:22.059Z,2.37
2019-02-12T12:09:25.099Z,2.35
2019-02-12T12:12:27.879Z,2.10
2019-02-12T12:15:30.427Z,2.05
2019-02-12T12:18:29.360Z,1.82
2019-02-12T12:21:31.883Z,1.95
2019-02-12T12:24:34.920Z,1.90
2019-02-12T12:27:37.450Z,1.40
2019-02-12T12:30:41.009Z,1.45
2019-02-12T12:34:41.895Z,1.80
2019-02-12T12:37:45.448Z,1.50
2019-02-12T12:40:49.512Z,1.70
2019-02-12T12:43:52.043Z,1.20
2019-02-12T12:46:55.851Z,1.50
2019-02-12T12:49:59.207Z,1.72
2019-02-12T12:53:04.744Z,1.50
2019-02-12T12:56:07.781Z,1.77
2019-02-12T12:59:11.081Z,1.50
2019-02-12T13:02:13.883Z,1.60
2019-02-12T13:05:16.909Z,1.70
2019-02-12T13:08:19.432Z,1.55
2019-02-12T13:11:21.960Z,1.75
2019-02-12T13:14:24.497Z,1.32
2019-02-12T13:17:28.045Z,1.30
2019-02-12T13:20:30.566Z,1.55
2019-02-12T13:23:29.515Z,1.15
2019-02-12T13:26:32.296Z,1.67
2019-02-12T13:29:34.825Z,1.42
2019-02-12T13:32:38.887Z,1.40
2019-02-12T13:35:45.001Z,1.62
2019-02-12T13:38:47.271Z,1.57
2019-02-12T13:41:50.067Z,1.75
2019-02-12T13:44:53.094Z,1.90
2019-02-12T13:47:55.634Z,1.35
2019-02-12T13:50:59.434Z,1.40
2019-02-12T13:54:04.805Z,1.80
2019-02-12T13:57:14.217Z,1.72
2019-02-12T14:00:18.035Z,1.20
2019-02-12T14:03:22.551Z,1.27
2019-02-12T14:06:25.639Z,1.57
2019-02-12T14:09:28.423Z,1.65
2019-02-12T14:12:32.496Z,1.37
2019-02-12T14:15:35.532Z,1.60
2019-02-12T14:18:34.778Z,1.50
2019-02-12T14:21:37.254Z,1.45
2019-02-12T14:24:40.296Z,1.50
2019-02-12T14:27:43.849Z,1.50
2019-02-12T14:30:46.637Z,1.50
2019-02-12T14:33:49.672Z,1.50
2019-02-12T14:36:52.461Z,1.80
2019-02-12T14:39:54.987Z,1.35
2019-02-12T14:42:57.513Z,1.55
2019-02-12T14:46:00.552Z,1.57
2019-02-12T14:49:03.338Z,1.30
2019-02-12T14:52:05.863Z,1.20
2019-02-12T14:55:09.417Z,1.70
2019-02-12T14:58:11.944Z,1.35
2019-02-12T15:01:15.498Z,1.42
2019-02-12T15:04:18.027Z,1.50
2019-02-12T15:07:22.605Z,2.00
2019-02-12T15:10:25.135Z,1.70
2019-02-12T15:13:28.167Z,1.55
2019-02-12T15:16:30.954Z,1.50
2019-02-12T15:19:37.322Z,1.80
2019-02-12T15:22:40.113Z,1.77
2019-02-12T15:25:44.423Z,1.72
2019-02-12T15:28:48.235Z,1.75
2019-02-12T15:31:51.272Z,1.40
2019-02-12T15:34:54.322Z,1.47
2019-02-12T15:37:57.099Z,1.52
2019-02-12T15:40:59.884Z,1.20
2019-02-12T15:44:02.932Z,1.50
2019-02-12T15:47:06.474Z,1.47
2019-02-12T15:50:09.003Z,1.90
2019-02-12T15:53:11.802Z,1.55
2019-02-12T15:56:14.312Z,1.82
2019-02-12T15:59:18.390Z,1.62
2019-02-12T16:02:34.420Z,1.70
2019-02-12T16:05:35.217Z,1.35
2019-02-12T16:08:37.992Z,1.45
2019-02-12T16:11:41.865Z,1.40
2019-02-12T16:14:40.034Z,1.60
2019-02-12T16:17:39.308Z,1.47
2019-02-12T16:20:40.679Z,1.30
2019-02-12T16:23:43.726Z,1.42
2019-02-12T16:26:46.509Z,1.60
2019-02-12T16:29:49.291Z,1.25
2019-02-12T16:32:53.865Z,1.70
2019-02-12T16:35:56.649Z,1.80
2019-02-12T16:38:59.434Z,2.40
2019-02-12T16:42:01.962Z,1.90
2019-02-12T16:45:05.002Z,2.42
2019-02-12T16:48:07.789Z,2.75
2019-02-12T16:51:17.990Z,2.75
2019-02-12T16:54:21.035Z,2.65
2019-02-12T16:57:24.586Z,3.17
2019-02-12T17:00:27.626Z,3.30
2019-02-12T17:03:30.414Z,3.50
2019-02-12T17:06:33.197Z,3.58
2019-02-12T17:09:36.743Z,2.12
2019-02-12T17:12:39.784Z,2.00
2019-02-12T17:15:43.613Z,2.55
2019-02-12T17:18:46.637Z,1.80
2019-02-12T17:21:49.431Z,2.00
2019-02-12T17:24:52.717Z,1.90
2019-02-12T17:27:56.533Z,2.20
2019-02-12T17:31:06.475Z,2.80
2019-02-12T17:34:09.002Z,2.10
2019-02-12T17:37:12.070Z,1.92
2019-02-12T17:40:15.087Z,1.70
2019-02-12T17:43:17.607Z,2.00
2019-02-12T17:46:20.396Z,2.05
2019-02-12T17:49:24.458Z,2.80
2019-02-12T17:52:27.753Z,7.87
2019-02-12T17:55:31.052Z,4.70
2019-02-12T17:58:41.523Z,3.60
2019-02-12T18:01:44.553Z,2.42
2019-02-12T18:04:54.766Z,6.25
2019-02-12T18:07:57.545Z,5.17
2019-02-12T18:10:56.332Z,6.28
2019-02-12T18:13:59.275Z,5.90
2019-02-12T18:17:02.315Z,4.58
2019-02-12T18:20:05.877Z,6.33
2019-02-12T18:23:08.394Z,7.05
2019-02-12T18:26:11.440Z,5.08
2019-02-12T18:29:14.472Z,5.97
2019-02-12T18:32:17.512Z,4.67
2019-02-12T18:35:20.301Z,6.67
2019-02-12T18:38:23.355Z,5.30
2019-02-12T18:41:26.120Z,7.40
2019-02-12T18:44:28.649Z,6.08
2019-02-12T18:47:31.432Z,6.30
2019-02-12T18:50:33.964Z,5.55
2019-02-12T18:53:37.770Z,7.65
2019-02-12T18:56:41.853Z,5.92
2019-02-12T18:59:51.529Z,7.20
2019-02-12T19:02:54.572Z,5.92
2019-02-12T19:05:51.793Z,6.05
2019-02-12T19:08:54.764Z,5.85
2019-02-12T19:11:57.546Z,6.10
2019-02-12T19:15:00.843Z,5.83
2019-02-12T19:18:11.564Z,7.08
2019-02-12T19:21:15.111Z,5.05
2019-02-12T19:24:29.674Z,5.97
2019-02-12T19:27:33.481Z,6.20
2019-02-12T19:30:36.265Z,5.92
2019-02-12T19:33:39.054Z,5.47
2019-02-12T19:36:41.577Z,5.62
2019-02-12T19:39:44.873Z,5.20
2019-02-12T19:42:47.403Z,6.58
2019-02-12T19:45:51.217Z,5.10
2019-02-12T19:48:54.190Z,9.20
2019-02-12T19:51:57.036Z,6.10
2019-02-12T19:55:01.099Z,5.62
2019-02-12T19:58:03.881Z,6.28
2019-02-12T20:01:06.667Z,5.50
2019-02-12T20:04:09.707Z,6.15
2019-02-12T20:07:12.238Z,4.08
2019-02-12T20:10:15.278Z,4.35
2019-02-12T20:13:17.806Z,4.40
2019-02-12T20:16:20.587Z,4.22
2019-02-12T20:19:24.400Z,4.60
2019-02-12T20:22:27.698Z,7.55
2019-02-12T20:25:30.765Z,4.37
2019-02-12T20:28:34.793Z,5.05
2019-02-12T20:31:45.003Z,6.95
2019-02-12T20:34:48.056Z,4.60
2019-02-12T20:37:51.086Z,5.75
2019-02-12T20:40:53.871Z,5.97
2019-02-12T20:43:57.681Z,5.78
2019-02-12T20:47:01.998Z,6.25
2019-02-12T20:49:58.890Z,9.45
2019-02-12T20:53:01.674Z,8.48
2019-02-12T20:56:04.468Z,7.97
2019-02-12T20:59:08.270Z,7.92
2019-02-12T21:02:11.053Z,8.93
2019-02-12T21:05:08.137Z,7.65
2019-02-12T21:08:11.242Z,7.58
2019-02-12T21:11:14.283Z,8.23
2019-02-12T21:14:17.064Z,7.12
2019-02-12T21:17:19.850Z,5.75
2019-02-12T21:20:22.890Z,8.78
2019-02-12T21:23:25.979Z,6.40
2019-02-12T21:26:27.950Z,6.85
2019-02-12T21:29:30.985Z,8.43
2019-02-12T21:32:30.078Z,6.37
2019-02-12T21:35:32.973Z,7.60
2019-02-12T21:38:36.525Z,6.55
2019-02-12T21:41:40.600Z,7.17
2019-02-12T21:44:44.140Z,7.42
2019-02-12T21:47:47.435Z,7.58
2019-02-12T21:50:50.473Z,9.93
2019-02-12T21:53:53.516Z,11.10
2019-02-12T21:56:56.295Z,7.90
2019-02-12T21:59:55.515Z,7.97
2019-02-12T22:02:58.540Z,7.25
2019-02-12T22:06:01.588Z,7.40
2019-02-12T22:09:04.362Z,7.45
2019-02-12T22:12:07.411Z,7.87
2019-02-12T22:15:10.186Z,6.50
2019-02-12T22:18:13.740Z,9.15
2019-02-12T22:21:16.789Z,10.95
2019-02-12T22:24:19.829Z,6.62
2019-02-12T22:27:22.092Z,11.75
2019-02-12T22:30:25.131Z,8.68
2019-02-12T22:33:22.087Z,5.58
2019-02-12T22:36:25.323Z,7.30
2019-02-12T22:39:28.107Z,4.92
2019-02-12T22:42:31.148Z,5.53
2019-02-12T22:45:30.089Z,8.60
2019-02-12T22:48:33.897Z,9.33
2019-02-12T22:51:36.424Z,9.30
2019-02-12T22:54:35.117Z,9.28
2019-02-12T22:57:39.181Z,9.13
2019-02-12T23:00:47.084Z,10.00
2019-02-12T23:03:49.863Z,8.20
2019-02-12T23:06:52.395Z,9.38
2019-02-12T23:09:56.211Z,7.58
2019-02-12T23:12:58.731Z,8.00
2019-02-12T23:16:01.516Z,7.08
2019-02-12T23:19:05.579Z,7.75
2019-02-12T23:22:08.628Z,7.55
2019-02-12T23:25:11.402Z,7.37
2019-02-12T23:28:15.208Z,8.00
2019-02-12T23:31:17.736Z,6.62
2019-02-12T23:34:20.781Z,7.58
2019-02-12T23:37:23.568Z,7.60
2019-02-12T23:40:26.348Z,9.15
2019-02-12T23:43:31.948Z,9.33
2019-02-12T23:46:35.753Z,8.80
2019-02-12T23:49:38.290Z,9.63
2019-02-12T23:52:41.321Z,9.50
2019-02-12T23:55:43.861Z,9.48
2019-02-12T23:58:46.889Z,8.55
